Time;durP1;ratioP1;P1;durP2;ratioP2;P2;SDS_P1;SDS_P2;PMS_P1;PMS_P2;Temp;Humidity;BMP_temperature;BMP_pressure;BME280_temperature;BME280_humidity;BME280_pressure;Samples;Min_cycle;Max_cycle;Signal;HPM_P1;HPM_P2
2021/04/24 00:00:13;;;;;;;18.65;8.38;;;2.70;83.50;;;;;;5059367;28;20131;-81
2021/04/24 00:02:41;;;;;;;19.10;9.30;;;2.70;83.90;;;;;;5078227;28;20028;-84
2021/04/24 00:05:12;;;;;;;22.17;9.45;;;2.80;83.80;;;;;;5075530;28;20036;-84
2021/04/24 00:07:38;;;;;;;21.25;9.13;;;2.70;83.50;;;;;;5078645;28;20038;-81
2021/04/24 00:10:04;;;;;;;18.13;8.88;;;2.60;83.60;;;;;;5043263;28;20505;-81
2021/04/24 00:12:31;;;;;;;22.55;8.05;;;2.60;83.90;;;;;;5046548;28;20497;-84
2021/04/24 00:14:56;;;;;;;17.30;8.25;;;2.60;84.10;;;;;;5045540;28;20033;-80
2021/04/24 00:17:22;;;;;;;22.70;8.52;;;2.50;84.40;;;;;;5077222;28;20032;-82
2021/04/24 00:19:48;;;;;;;16.58;7.40;;;2.50;84.40;;;;;;5060185;28;20094;-84
2021/04/24 00:22:14;;;;;;;16.52;8.85;;;2.50;84.60;;;;;;5033555;28;20033;-82
2021/04/24 00:24:39;;;;;;;17.60;8.57;;;2.40;84.30;;;;;;5047830;28;20111;-84
2021/04/24 00:27:05;;;;;;;19.98;7.85;;;2.40;84.50;;;;;;5046346;28;20410;-84
2021/04/24 00:29:33;;;;;;;16.20;8.20;;;2.40;84.50;;;;;;5050504;28;20414;-83
2021/04/24 00:31:59;;;;;;;15.82;8.13;;;2.30;84.40;;;;;;5070610;28;20032;-82
2021/04/24 00:34:26;;;;;;;15.98;7.40;;;2.30;84.30;;;;;;5070645;28;20086;-84
2021/04/24 00:36:51;;;;;;;13.90;7.32;;;2.20;84.90;;;;;;5034026;28;20402;-81
2021/04/24 00:39:17;;;;;;;15.60;8.10;;;2.30;84.90;;;;;;5046790;28;20394;-82
2021/04/24 00:41:43;;;;;;;20.15;8.57;;;2.20;85.10;;;;;;5046504;28;20036;-84
2021/04/24 00:44:09;;;;;;;22.08;9.38;;;2.10;84.80;;;;;;5061468;28;20051;-83
2021/04/24 00:46:35;;;;;;;29.58;9.88;;;2.10;84.90;;;;;;5065773;28;20029;-82
2021/04/24 00:49:01;;;;;;;21.25;9.30;;;2.10;84.90;;;;;;5066717;28;20040;-84
2021/04/24 00:51:27;;;;;;;24.95;10.23;;;2.00;85.20;;;;;;5066299;28;20032;-83
2021/04/24 00:53:52;;;;;;;23.88;10.35;;;2.00;85.50;;;;;;5046326;28;20045;-81
2021/04/24 00:56:18;;;;;;;22.77;10.25;;;2.00;85.80;;;;;;5046591;28;20036;-84
2021/04/24 00:58:45;;;;;;;22.42;9.55;;;2.00;86.10;;;;;;5083558;28;20200;-83
2021/04/24 01:01:11;;;;;;;24.23;10.70;;;2.10;86.00;;;;;;5082463;28;20057;-83
2021/04/24 01:03:37;;;;;;;27.75;10.27;;;2.00;85.80;;;;;;5072358;28;20101;-83
2021/04/24 01:06:03;;;;;;;20.67;9.90;;;1.90;85.80;;;;;;5091273;28;20042;-83
2021/04/24 01:08:29;;;;;;;18.08;9.60;;;1.90;86.20;;;;;;5067088;28;20044;-83
2021/04/24 01:10:55;;;;;;;20.60;9.05;;;1.90;86.10;;;;;;5062941;28;20035;-83
2021/04/24 01:13:24;;;;;;;17.00;8.38;;;1.80;86.00;;;;;;5082348;28;20038;-83
2021/04/24 01:15:50;;;;;;;23.42;9.02;;;1.80;86.20;;;;;;5088458;28;20035;-83
2021/04/24 01:18:17;;;;;;;24.13;9.77;;;1.80;86.20;;;;;;5086580;28;20033;-83
2021/04/24 01:20:46;;;;;;;20.98;9.35;;;1.70;86.10;;;;;;5070614;28;20090;-83
2021/04/24 01:23:12;;;;;;;21.30;9.55;;;1.70;86.50;;;;;;5065968;28;20107;-83
2021/04/24 01:25:41;;;;;;;21.02;8.90;;;1.70;86.50;;;;;;5065861;28;20034;-83
2021/04/24 01:28:08;;;;;;;22.85;10.35;;;1.70;86.60;;;;;;5066918;28;20058;-83
2021/04/24 01:30:38;;;;;;;26.80;10.60;;;1.60;86.60;;;;;;5050177;28;20067;-82
2021/04/24 01:33:07;;;;;;;20.92;9.95;;;1.60;86.70;;;;;;5073919;28;20090;-83
2021/04/24 01:35:34;;;;;;;25.15;9.68;;;1.70;86.70;;;;;;5088376;28;20909;-83
2021/04/24 01:38:00;;;;;;;25.58;10.32;;;1.60;87.30;;;;;;5075225;28;20052;-82
2021/04/24 01:40:27;;;;;;;22.77;10.00;;;1.50;86.50;;;;;;5073102;28;20066;-82
2021/04/24 01:42:53;;;;;;;23.67;10.32;;;1.50;86.70;;;;;;5076369;28;20032;-82
2021/04/24 01:45:21;;;;;;;22.55;10.35;;;1.50;86.80;;;;;;5077681;28;20415;-82
2021/04/24 01:47:48;;;;;;;26.77;10.50;;;1.40;86.80;;;;;;5079522;28;20398;-83
2021/04/24 01:50:39;;;;;;;22.80;9.93;;;1.40;86.90;;;;;;5061740;28;20644;-82
2021/04/24 01:53:08;;;;;;;22.35;10.35;;;1.40;87.30;;;;;;5089502;28;20024;-83
2021/04/24 01:55:36;;;;;;;26.08;10.15;;;1.40;87.30;;;;;;5068411;28;20326;-82
2021/04/24 01:58:06;;;;;;;22.83;9.52;;;1.40;87.10;;;;;;5066650;28;20039;-83
2021/04/24 02:00:37;;;;;;;25.92;10.60;;;1.30;87.30;;;;;;5065889;28;20579;-83
2021/04/24 02:03:06;;;;;;;25.15;11.00;;;1.30;87.30;;;;;;5066206;28;20247;-83
2021/04/24 02:05:32;;;;;;;24.00;9.88;;;1.30;87.40;;;;;;5066811;28;20067;-83
2021/04/24 02:08:00;;;;;;;20.95;10.45;;;1.20;87.50;;;;;;5031912;28;20071;-83
2021/04/24 02:10:28;;;;;;;22.52;10.45;;;1.20;87.70;;;;;;5069979;28;20044;-82
2021/04/24 02:12:56;;;;;;;25.20;10.85;;;1.20;87.80;;;;;;5056975;28;20025;-82
2021/04/24 02:15:22;;;;;;;29.13;11.13;;;1.20;88.00;;;;;;5070511;28;20032;-83
2021/04/24 02:17:48;;;;;;;26.05;10.68;;;1.20;87.90;;;;;;5069543;28;20044;-83
2021/04/24 02:20:15;;;;;;;27.92;10.40;;;1.20;88.00;;;;;;5054066;28;20059;-83
2021/04/24 02:22:42;;;;;;;20.98;10.07;;;1.20;88.00;;;;;;5058810;28;20028;-82
2021/04/24 02:25:09;;;;;;;24.55;10.20;;;1.30;88.00;;;;;;5077769;28;20507;-82
2021/04/24 02:27:35;;;;;;;25.02;10.57;;;1.20;87.90;;;;;;5065417;28;20032;-83
2021/04/24 02:30:01;;;;;;;20.35;9.63;;;1.10;87.90;;;;;;5062306;28;20091;-83
2021/04/24 02:32:30;;;;;;;27.63;9.85;;;1.10;88.00;;;;;;5065113;28;20578;-83
2021/04/24 02:34:58;;;;;;;23.92;10.88;;;1.10;88.10;;;;;;5080759;28;20062;-83
2021/04/24 02:37:24;;;;;;;21.88;9.95;;;1.10;88.50;;;;;;5066785;28;20051;-83
2021/04/24 02:39:51;;;;;;;26.80;10.30;;;1.10;88.50;;;;;;5067928;28;20352;-83
2021/04/24 02:42:26;;;;;;;30.98;11.13;;;1.10;88.60;;;;;;5051002;28;20069;-83
2021/04/24 02:44:57;;;;;;;20.77;10.82;;;1.10;88.70;;;;;;5077122;28;20037;-83
2021/04/24 02:47:24;;;;;;;21.70;9.20;;;1.10;88.60;;;;;;5061879;28;20127;-83
2021/04/24 02:49:53;;;;;;;25.55;11.13;;;1.10;88.60;;;;;;5082158;28;20036;-83
2021/04/24 02:52:19;;;;;;;23.08;10.38;;;1.10;88.70;;;;;;5056380;28;20036;-82
2021/04/24 02:54:45;;;;;;;25.92;10.80;;;1.10;88.70;;;;;;5055143;28;20027;-83
2021/04/24 02:57:10;;;;;;;23.15;9.80;;;1.00;88.80;;;;;;5047516;28;20064;-83
2021/04/24 02:59:36;;;;;;;27.23;11.57;;;1.00;89.10;;;;;;5048983;28;20121;-83
2021/04/24 03:02:03;;;;;;;25.40;11.52;;;1.10;88.50;;;;;;5048785;28;20520;-83
2021/04/24 03:04:29;;;;;;;26.98;10.40;;;1.10;88.70;;;;;;5086060;28;20268;-83
2021/04/24 03:06:54;;;;;;;27.85;10.27;;;1.10;88.80;;;;;;5067180;28;20037;-83
2021/04/24 03:09:20;;;;;;;24.92;10.18;;;1.00;88.80;;;;;;5055799;28;20040;-82
2021/04/24 03:11:46;;;;;;;24.52;11.50;;;1.10;88.80;;;;;;5053603;28;20166;-82
2021/04/24 03:14:12;;;;;;;21.75;9.50;;;1.20;88.90;;;;;;5049392;28;20545;-82
2021/04/24 03:16:43;;;;;;;23.45;10.55;;;1.10;88.70;;;;;;5053782;28;20040;-84
2021/04/24 03:19:10;;;;;;;24.13;10.55;;;1.00;88.70;;;;;;5071024;28;20487;-84
2021/04/24 03:21:36;;;;;;;18.15;8.55;;;1.00;88.90;;;;;;5075461;28;21390;-82
2021/04/24 03:24:04;;;;;;;17.55;9.25;;;0.90;88.80;;;;;;5084654;28;20032;-83
2021/04/24 03:26:30;;;;;;;23.50;9.00;;;1.10;88.90;;;;;;5093422;28;20055;-83
2021/04/24 03:28:57;;;;;;;29.85;10.90;;;1.00;88.90;;;;;;5093001;28;20067;-83
2021/04/24 03:31:22;;;;;;;25.15;10.00;;;1.10;89.40;;;;;;5093846;28;20039;-83
2021/04/24 03:33:48;;;;;;;24.95;10.38;;;1.10;88.80;;;;;;5095540;28;20036;-83
2021/04/24 03:36:14;;;;;;;23.95;10.98;;;1.10;88.80;;;;;;5059883;28;20036;-82
2021/04/24 03:38:41;;;;;;;23.23;10.35;;;1.00;88.90;;;;;;5057183;28;20426;-83
2021/04/24 03:41:07;;;;;;;21.45;10.93;;;1.00;88.90;;;;;;5090365;28;20048;-83
2021/04/24 03:43:34;;;;;;;25.65;11.45;;;1.10;89.00;;;;;;5075526;28;20111;-84
2021/04/24 03:46:01;;;;;;;25.63;9.82;;;1.00;89.20;;;;;;5094044;28;20032;-83
2021/04/24 03:48:26;;;;;;;29.00;11.85;;;1.00;89.30;;;;;;5095217;28;20268;-83
2021/04/24 03:50:53;;;;;;;28.88;10.60;;;1.00;89.30;;;;;;5095221;28;20583;-83
2021/04/24 03:53:19;;;;;;;20.30;9.93;;;1.00;90.00;;;;;;5083683;28;20030;-82
2021/04/24 03:55:44;;;;;;;27.58;10.80;;;1.00;89.60;;;;;;5053151;28;20111;-83
2021/04/24 03:58:11;;;;;;;26.90;10.73;;;1.00;89.80;;;;;;5077316;28;20028;-83
2021/04/24 04:00:37;;;;;;;27.25;10.00;;;0.90;90.00;;;;;;5074465;28;20032;-82
2021/04/24 04:03:05;;;;;;;27.52;10.60;;;0.90;90.00;;;;;;5077640;28;20024;-83
2021/04/24 04:05:37;;;;;;;25.27;10.00;;;1.00;90.00;;;;;;5064965;28;20036;-83
2021/04/24 04:08:05;;;;;;;23.90;10.40;;;1.00;90.00;;;;;;5071418;28;20096;-82
2021/04/24 04:10:32;;;;;;;29.35;10.55;;;0.90;90.10;;;;;;5059052;28;20044;-83
2021/04/24 04:12:59;;;;;;;25.23;9.35;;;0.90;90.10;;;;;;5073062;28;20028;-83
2021/04/24 04:15:27;;;;;;;25.33;10.20;;;0.90;90.10;;;;;;5078736;28;20469;-83
2021/04/24 04:18:08;;;;;;;27.02;10.73;;;0.90;90.10;;;;;;5073848;28;20054;-83
2021/04/24 04:20:36;;;;;;;26.35;9.00;;;0.90;90.30;;;;;;5078555;28;20426;-83
2021/04/24 04:23:02;;;;;;;25.00;10.05;;;0.90;90.00;;;;;;5069050;28;20130;-83
2021/04/24 04:25:28;;;;;;;24.85;9.38;;;1.00;90.00;;;;;;5070174;28;20051;-83
2021/04/24 04:27:54;;;;;;;19.05;8.90;;;0.90;90.00;;;;;;5063805;28;20602;-82
2021/04/24 04:30:22;;;;;;;19.77;9.75;;;1.00;90.00;;;;;;5074704;28;20573;-83
2021/04/24 04:32:49;;;;;;;26.27;10.10;;;1.00;90.00;;;;;;5041158;28;20027;-82
2021/04/24 04:35:15;;;;;;;20.25;8.93;;;1.00;90.00;;;;;;5059030;28;20047;-83
2021/04/24 04:37:42;;;;;;;18.02;8.55;;;1.00;90.00;;;;;;5039894;28;20416;-83
2021/04/24 04:40:11;;;;;;;24.45;9.55;;;1.00;90.10;;;;;;5075575;28;20593;-82
2021/04/24 04:42:37;;;;;;;21.27;9.80;;;1.00;90.00;;;;;;5069631;28;20114;-82
2021/04/24 04:45:04;;;;;;;23.88;9.57;;;1.10;90.00;;;;;;5081764;28;20085;-83
2021/04/24 04:47:30;;;;;;;18.35;7.80;;;1.10;90.00;;;;;;5065595;28;20091;-82
2021/04/24 04:49:56;;;;;;;19.48;7.72;;;1.10;89.90;;;;;;5070475;28;20423;-82
2021/04/24 04:52:22;;;;;;;20.80;7.68;;;1.10;89.90;;;;;;5057264;28;20325;-83
2021/04/24 04:54:48;;;;;;;22.10;9.13;;;1.10;89.70;;;;;;5079358;28;20445;-83
2021/04/24 04:57:14;;;;;;;17.92;7.65;;;1.10;89.60;;;;;;5063850;28;20094;-82
2021/04/24 04:59:40;;;;;;;17.90;8.15;;;1.20;89.80;;;;;;5082935;28;20035;-83
2021/04/24 05:02:06;;;;;;;23.00;8.95;;;1.20;89.90;;;;;;5044236;28;21225;-83
2021/04/24 05:04:33;;;;;;;23.45;10.20;;;1.20;90.00;;;;;;5076186;28;20044;-82
2021/04/24 05:07:00;;;;;;;21.70;9.73;;;1.30;90.10;;;;;;5077346;28;20039;-82
2021/04/24 05:09:25;;;;;;;19.15;8.88;;;1.30;90.10;;;;;;5047152;28;20053;-83
2021/04/24 05:11:52;;;;;;;21.45;10.07;;;1.30;90.40;;;;;;5067422;28;20040;-83
2021/04/24 05:14:18;;;;;;;17.00;9.32;;;1.30;90.10;;;;;;5063038;28;20044;-83
2021/04/24 05:16:44;;;;;;;22.77;9.75;;;1.50;90.30;;;;;;5080245;28;20536;-82
2021/04/24 05:19:11;;;;;;;18.40;9.20;;;1.50;90.20;;;;;;5078601;28;20487;-82
2021/04/24 05:21:37;;;;;;;19.98;9.15;;;1.60;90.30;;;;;;5072352;28;20478;-83
2021/04/24 05:24:04;;;;;;;23.15;10.30;;;1.70;90.20;;;;;;5064216;28;20107;-83
2021/04/24 05:26:30;;;;;;;29.35;10.68;;;1.70;90.10;;;;;;5034436;28;20037;-82
2021/04/24 05:28:56;;;;;;;26.25;10.93;;;1.70;90.10;;;;;;5051750;28;20410;-83
2021/04/24 05:31:22;;;;;;;27.33;11.13;;;1.70;90.20;;;;;;5070091;28;20036;-83
2021/04/24 05:33:48;;;;;;;28.20;10.85;;;1.90;90.20;;;;;;5068579;28;20273;-83
2021/04/24 05:36:16;;;;;;;30.13;11.35;;;1.80;90.20;;;;;;5059223;28;20036;-82
2021/04/24 05:38:42;;;;;;;25.40;10.52;;;2.00;90.20;;;;;;5047258;28;20040;-82
2021/04/24 05:41:14;;;;;;;25.27;11.18;;;2.00;90.20;;;;;;5068964;28;20044;-82
2021/04/24 05:43:40;;;;;;;28.63;11.98;;;2.10;90.30;;;;;;5072791;28;20043;-82
2021/04/24 05:46:06;;;;;;;29.75;11.73;;;2.30;90.30;;;;;;5069576;28;20133;-82
2021/04/24 05:48:32;;;;;;;29.55;11.65;;;2.30;90.30;;;;;;5064078;28;20032;-83
2021/04/24 05:50:59;;;;;;;24.33;11.27;;;2.50;90.40;;;;;;5081343;28;20041;-82
2021/04/24 05:53:25;;;;;;;25.45;11.35;;;2.60;90.30;;;;;;5084940;28;20039;-82
2021/04/24 05:55:51;;;;;;;29.50;11.48;;;2.70;90.40;;;;;;5082530;28;20492;-81
2021/04/24 05:58:17;;;;;;;31.05;11.68;;;2.80;90.40;;;;;;5078407;28;20042;-81
2021/04/24 06:00:43;;;;;;;28.98;11.93;;;3.00;90.50;;;;;;5071692;28;20218;-81
2021/04/24 06:03:09;;;;;;;31.45;11.80;;;3.10;90.50;;;;;;5079592;28;20068;-81
2021/04/24 06:05:34;;;;;;;22.00;11.57;;;3.20;90.40;;;;;;5077261;28;20711;-81
2021/04/24 06:08:00;;;;;;;32.42;12.13;;;3.40;90.60;;;;;;5072139;28;20061;-81
2021/04/24 06:10:26;;;;;;;27.15;11.75;;;3.50;90.60;;;;;;5052227;28;20473;-81
2021/04/24 06:12:52;;;;;;;31.52;12.45;;;3.60;90.60;;;;;;5070805;28;20032;-81
2021/04/24 06:15:19;;;;;;;27.98;11.30;;;3.70;90.60;;;;;;5036851;28;20035;-81
2021/04/24 06:17:45;;;;;;;24.05;10.57;;;3.80;90.50;;;;;;5069691;28;20071;-81
2021/04/24 06:20:12;;;;;;;27.23;12.43;;;4.00;90.60;;;;;;5080001;28;20069;-81
2021/04/24 06:22:39;;;;;;;29.13;11.65;;;4.10;90.60;;;;;;5071919;28;20190;-81
2021/04/24 06:25:11;;;;;;;24.45;11.13;;;4.30;90.70;;;;;;5065195;28;20036;-81
2021/04/24 06:27:36;;;;;;;24.20;10.60;;;4.40;90.70;;;;;;5065214;28;20036;-81
2021/04/24 06:30:08;;;;;;;22.60;10.40;;;4.50;90.70;;;;;;5043144;28;20050;-81
2021/04/24 06:32:35;;;;;;;21.30;10.18;;;4.60;90.70;;;;;;5079552;28;20521;-81
2021/04/24 06:35:01;;;;;;;18.95;10.65;;;4.80;90.70;;;;;;5078002;28;20299;-82
2021/04/24 06:37:26;;;;;;;25.42;10.43;;;5.00;90.70;;;;;;5062514;28;20044;-82
2021/04/24 06:39:52;;;;;;;23.58;9.80;;;5.20;90.70;;;;;;5049149;28;20729;-81
2021/04/24 06:42:19;;;;;;;18.83;8.35;;;5.50;90.60;;;;;;5051014;28;20040;-82
2021/04/24 06:44:44;;;;;;;21.73;8.50;;;5.70;90.50;;;;;;5065648;28;20036;-82
2021/04/24 06:47:11;;;;;;;20.45;9.07;;;5.90;90.20;;;;;;5066361;28;20064;-82
2021/04/24 06:49:37;;;;;;;19.98;8.35;;;6.20;90.00;;;;;;5073619;28;20125;-82
2021/04/24 06:52:03;;;;;;;24.35;8.93;;;6.50;89.50;;;;;;5055588;28;20032;-80
2021/04/24 06:54:29;;;;;;;14.10;7.65;;;6.70;88.90;;;;;;5073811;28;20101;-81
2021/04/24 06:56:54;;;;;;;20.73;8.00;;;6.80;88.20;;;;;;5072095;28;20060;-81
2021/04/24 06:59:20;;;;;;;15.82;8.07;;;6.90;87.80;;;;;;5057817;28;20287;-81
2021/04/24 07:01:46;;;;;;;17.63;7.60;;;7.00;87.40;;;;;;5077613;28;20040;-81
2021/04/24 07:04:12;;;;;;;15.95;7.00;;;7.10;86.80;;;;;;5074894;28;20047;-81
2021/04/24 07:06:38;;;;;;;17.90;7.93;;;7.20;86.30;;;;;;5058455;28;20438;-81
2021/04/24 07:09:04;;;;;;;18.65;7.28;;;7.30;86.10;;;;;;5073151;28;20048;-80
2021/04/24 07:11:30;;;;;;;18.83;7.30;;;7.40;85.80;;;;;;5073683;28;20036;-81
2021/04/24 07:13:56;;;;;;;20.58;7.65;;;7.50;84.90;;;;;;5072982;28;20040;-78
2021/04/24 07:16:21;;;;;;;14.48;7.50;;;7.60;85.30;;;;;;5079982;28;20024;-80
2021/04/24 07:18:47;;;;;;;16.48;6.40;;;7.80;84.80;;;;;;5066442;28;20067;-81
2021/04/24 07:21:13;;;;;;;16.20;6.35;;;7.90;83.60;;;;;;5066829;28;20032;-81
2021/04/24 07:23:40;;;;;;;16.20;6.57;;;8.10;82.70;;;;;;5082851;28;20445;-81
2021/04/24 07:26:08;;;;;;;15.60;6.65;;;8.00;82.30;;;;;;5066513;28;20410;-82
2021/04/24 07:28:33;;;;;;;17.38;7.22;;;8.10;82.20;;;;;;5084564;28;20044;-82
2021/04/24 07:30:59;;;;;;;16.65;6.18;;;8.10;82.10;;;;;;5062042;28;20046;-80
2021/04/24 07:33:25;;;;;;;19.20;5.82;;;8.10;81.70;;;;;;5084460;28;20027;-82
2021/04/24 07:35:52;;;;;;;21.13;5.85;;;8.20;81.30;;;;;;5060741;28;20088;-81
2021/04/24 07:38:19;;;;;;;16.10;5.57;;;8.20;80.80;;;;;;5081702;28;20070;-82
2021/04/24 07:40:46;;;;;;;20.33;5.10;;;8.30;79.90;;;;;;5068550;28;20028;-81
2021/04/24 07:43:12;;;;;;;19.00;5.90;;;8.30;79.00;;;;;;5085838;28;20028;-81
2021/04/24 07:45:39;;;;;;;13.63;5.20;;;8.20;79.00;;;;;;5070923;28;20104;-81
2021/04/24 07:48:05;;;;;;;13.18;5.00;;;8.20;78.90;;;;;;5079457;28;20053;-80
2021/04/24 07:50:32;;;;;;;16.67;5.97;;;8.40;78.10;;;;;;5078964;28;20041;-80
2021/04/24 07:52:59;;;;;;;14.68;5.57;;;8.50;78.10;;;;;;5084516;28;20251;-80
2021/04/24 07:55:25;;;;;;;17.88;5.40;;;8.50;76.10;;;;;;5087272;28;20032;-82
2021/04/24 07:57:51;;;;;;;14.30;4.97;;;8.50;76.10;;;;;;5081782;28;20040;-81
2021/04/24 08:00:17;;;;;;;23.48;5.22;;;8.50;76.20;;;;;;5081224;28;20024;-82
2021/04/24 08:02:44;;;;;;;16.40;5.43;;;8.60;75.80;;;;;;5066453;28;20449;-80
2021/04/24 08:05:10;;;;;;;15.63;5.30;;;8.70;75.30;;;;;;5067585;28;20048;-81
2021/04/24 08:07:36;;;;;;;18.05;5.47;;;8.80;74.60;;;;;;5087102;28;20032;-81
2021/04/24 08:10:04;;;;;;;14.73;5.45;;;9.00;74.10;;;;;;5086655;28;20036;-80
2021/04/24 08:12:29;;;;;;;12.65;5.13;;;9.10;73.20;;;;;;5069744;28;20509;-82
2021/04/24 08:14:56;;;;;;;13.57;4.80;;;9.20;73.00;;;;;;5086388;28;20032;-81
2021/04/24 08:17:22;;;;;;;17.85;5.40;;;9.30;72.30;;;;;;5087828;28;20043;-81
2021/04/24 08:19:48;;;;;;;20.08;5.60;;;9.30;71.80;;;;;;5085225;28;20040;-80
2021/04/24 08:22:13;;;;;;;15.45;5.30;;;9.40;71.40;;;;;;5068409;28;20115;-81
2021/04/24 08:24:39;;;;;;;22.00;5.57;;;9.30;71.40;;;;;;5101175;27;20035;-81
2021/04/24 08:27:06;;;;;;;13.43;5.32;;;9.30;71.50;;;;;;5081380;28;20375;-82
2021/04/24 08:29:32;;;;;;;16.42;5.20;;;9.40;71.80;;;;;;5082060;28;20119;-81
2021/04/24 08:31:58;;;;;;;17.67;5.47;;;9.40;71.40;;;;;;5077830;28;20020;-81
2021/04/24 08:34:26;;;;;;;14.75;4.97;;;9.40;70.30;;;;;;5041714;28;20063;-80
2021/04/24 08:36:53;;;;;;;12.73;4.95;;;9.50;70.10;;;;;;5052196;28;20064;-81
2021/04/24 08:39:19;;;;;;;16.13;5.22;;;9.60;69.70;;;;;;5070148;28;20090;-81
2021/04/24 08:41:46;;;;;;;17.05;5.45;;;9.70;70.10;;;;;;5084958;28;20070;-80
2021/04/24 08:44:17;;;;;;;13.60;5.30;;;9.80;69.50;;;;;;5087435;28;20048;-80
2021/04/24 08:46:46;;;;;;;13.35;5.00;;;10.00;68.80;;;;;;5085931;28;20093;-81
2021/04/24 08:49:19;;;;;;;15.63;4.43;;;10.10;68.60;;;;;;5081997;28;20039;-80
2021/04/24 08:51:45;;;;;;;15.13;4.75;;;10.20;67.60;;;;;;5083632;28;20036;-81
2021/04/24 08:54:11;;;;;;;15.63;4.80;;;10.30;66.90;;;;;;5083253;28;21593;-82
2021/04/24 08:56:37;;;;;;;17.80;4.68;;;10.40;66.40;;;;;;5083433;28;20062;-79
2021/04/24 08:59:03;;;;;;;14.00;4.65;;;10.50;65.60;;;;;;5042935;28;20036;-81
2021/04/24 09:01:29;;;;;;;18.55;4.68;;;10.50;65.50;;;;;;5056906;28;20036;-81
2021/04/24 09:03:55;;;;;;;15.73;4.70;;;10.40;65.70;;;;;;5091516;28;20488;-81
2021/04/24 09:06:22;;;;;;;12.45;4.30;;;10.40;65.60;;;;;;5055117;28;20037;-80
2021/04/24 09:09:25;;;;;;;14.60;4.60;;;10.50;64.70;;;;;;5080260;28;20078;-80
2021/04/24 09:11:53;;;;;;;18.33;4.22;;;10.60;62.60;;;;;;5052883;28;20565;-82
2021/04/24 09:14:22;;;;;;;13.73;4.03;;;10.80;63.70;;;;;;5074335;28;20120;-81
2021/04/24 09:16:50;;;;;;;13.05;3.50;;;10.90;61.70;;;;;;5070493;28;20478;-81
2021/04/24 09:19:30;;;;;;;14.32;3.55;;;10.90;60.50;;;;;;5056905;28;20067;-82
2021/04/24 09:22:23;;;;;;;12.93;3.72;;;11.00;60.70;;;;;;5094178;28;20485;-81
2021/04/24 09:24:54;;;;;;;8.60;3.13;;;11.00;59.70;;;;;;5089961;27;20039;-78
2021/04/24 09:27:46;;;;;;;17.98;4.25;;;11.00;59.30;;;;;;5073198;28;20031;-80
2021/04/24 09:30:24;;;;;;;23.00;4.32;;;11.10;60.00;;;;;;5072228;28;20710;-80
2021/04/24 09:32:50;;;;;;;15.93;4.40;;;11.20;60.10;;;;;;5089176;28;20057;-80
2021/04/24 09:35:21;;;;;;;9.07;3.53;;;11.30;60.30;;;;;;5074485;28;20067;-80
2021/04/24 09:38:01;;;;;;;13.02;3.78;;;11.30;60.10;;;;;;5074937;28;20036;-80
2021/04/24 09:40:28;;;;;;;14.18;3.38;;;11.30;59.20;;;;;;5071175;28;20034;-81
2021/04/24 09:43:00;;;;;;;12.05;3.35;;;11.30;59.50;;;;;;5068192;28;20036;-81
2021/04/24 09:45:35;;;;;;;11.02;2.83;;;11.40;57.60;;;;;;5078827;28;20056;-81
2021/04/24 09:48:02;;;;;;;9.38;2.75;;;11.40;54.70;;;;;;5081366;28;20046;-80
2021/04/24 09:50:34;;;;;;;10.85;3.30;;;11.40;54.70;;;;;;5086290;28;20105;-82
2021/04/24 09:53:19;;;;;;;11.70;3.30;;;11.40;54.90;;;;;;5080933;28;20036;-82
2021/04/24 09:55:47;;;;;;;10.38;3.08;;;11.50;54.50;;;;;;5080484;28;20073;-78
2021/04/24 09:58:25;;;;;;;8.70;2.90;;;11.50;53.70;;;;;;5043748;28;20036;-80
2021/04/24 10:00:55;;;;;;;11.43;3.30;;;11.50;53.50;;;;;;5062825;28;20048;-80
2021/04/24 10:03:39;;;;;;;13.90;3.28;;;11.60;53.70;;;;;;5085449;28;20046;-81
2021/04/24 10:06:35;;;;;;;11.45;3.38;;;11.70;52.60;;;;;;5087678;28;20050;-80
2021/04/24 10:09:16;;;;;;;10.32;3.10;;;11.80;54.00;;;;;;5082402;28;20132;-81
2021/04/24 10:11:46;;;;;;;10.27;2.58;;;11.80;54.10;;;;;;5082954;28;20032;-82
2021/04/24 10:14:12;;;;;;;10.65;3.40;;;11.90;53.60;;;;;;5076918;28;20056;-81
2021/04/24 10:16:43;;;;;;;10.18;3.13;;;11.90;52.90;;;;;;5082235;28;20050;-79
2021/04/24 10:19:14;;;;;;;13.77;3.45;;;11.90;53.00;;;;;;5081924;28;20044;-82
2021/04/24 10:21:44;;;;;;;9.27;2.63;;;11.90;52.90;;;;;;5080185;28;20111;-82
2021/04/24 10:24:15;;;;;;;10.23;2.83;;;11.90;53.00;;;;;;5081935;28;20024;-80
2021/04/24 10:26:44;;;;;;;7.15;2.75;;;11.80;51.30;;;;;;5087265;28;20458;-80
2021/04/24 10:29:10;;;;;;;8.88;2.90;;;11.80;52.40;;;;;;5090243;28;20035;-82
2021/04/24 10:31:37;;;;;;;10.70;2.85;;;11.80;52.80;;;;;;5070824;28;20062;-79
2021/04/24 10:34:05;;;;;;;10.18;2.08;;;11.90;52.30;;;;;;5089880;28;20059;-80
2021/04/24 10:36:36;;;;;;;7.45;2.30;;;12.00;49.80;;;;;;5081609;28;20032;-81
2021/04/24 10:39:05;;;;;;;8.38;2.00;;;12.10;48.20;;;;;;5086379;28;20466;-78
2021/04/24 10:41:33;;;;;;;5.75;1.90;;;12.10;48.30;;;;;;5084618;28;20094;-79
2021/04/24 10:44:07;;;;;;;9.98;2.40;;;12.10;47.00;;;;;;5066414;28;20051;-82
2021/04/24 10:46:52;;;;;;;7.53;1.85;;;12.10;46.30;;;;;;5084893;28;20042;-80
2021/04/24 10:49:27;;;;;;;12.05;2.35;;;12.00;45.00;;;;;;5086152;28;20125;-79
2021/04/24 10:52:15;;;;;;;6.03;1.75;;;12.10;45.80;;;;;;5089118;28;20493;-80
2021/04/24 10:54:41;;;;;;;3.08;0.93;;;12.20;44.40;;;;;;5078433;28;20180;-79
2021/04/24 10:57:38;;;;;;;13.77;2.05;;;12.20;41.90;;;;;;5077457;28;20067;-80
2021/04/24 11:00:12;;;;;;;5.57;1.20;;;12.10;39.50;;;;;;5100393;28;20123;-79
2021/04/24 11:02:59;;;;;;;4.63;1.42;;;12.00;40.70;;;;;;5087895;28;20452;-79
2021/04/24 11:05:31;;;;;;;5.03;1.40;;;12.00;41.70;;;;;;5091029;28;20081;-81
2021/04/24 11:08:09;;;;;;;3.88;1.50;;;12.10;42.40;;;;;;5087744;28;20024;-80
2021/04/24 11:10:55;;;;;;;7.72;1.40;;;12.20;42.10;;;;;;5089657;28;20452;-81
2021/04/24 11:13:23;;;;;;;3.08;1.15;;;12.30;42.50;;;;;;5084760;28;20039;-82
2021/04/24 11:15:49;;;;;;;4.75;1.40;;;12.50;42.80;;;;;;5069039;28;20032;-79
2021/04/24 11:18:16;;;;;;;7.07;1.45;;;12.50;41.60;;;;;;5068788;28;20020;-81
2021/04/24 11:20:51;;;;;;;4.53;1.60;;;12.60;40.70;;;;;;5082061;28;20039;-79
2021/04/24 11:23:38;;;;;;;6.03;1.63;;;12.60;40.40;;;;;;5083759;28;20032;-80
2021/04/24 11:26:06;;;;;;;7.63;1.60;;;12.70;41.20;;;;;;5087951;28;20047;-83
2021/04/24 11:28:32;;;;;;;14.65;2.15;;;12.70;39.70;;;;;;5086117;28;20044;-82
2021/04/24 11:31:05;;;;;;;7.82;1.83;;;12.70;40.20;;;;;;5089313;28;20536;-80
2021/04/24 11:33:48;;;;;;;8.13;1.90;;;12.60;38.80;;;;;;5092892;28;20317;-81
2021/04/24 11:36:47;;;;;;;4.72;1.40;;;12.50;39.80;;;;;;5082636;28;20094;-80
2021/04/24 11:39:09;;;;;;;7.20;2.25;;;12.50;40.20;;;;;;5082072;28;20071;-82
2021/04/24 11:41:38;;;;;;;8.18;1.63;;;12.50;40.10;;;;;;5069313;28;20032;-79
2021/04/24 11:44:21;;;;;;;8.38;1.50;;;12.60;39.60;;;;;;5087665;28;20028;-80
2021/04/24 11:46:52;;;;;;;5.47;1.67;;;12.70;39.10;;;;;;5085017;28;20038;-79
2021/04/24 11:49:19;;;;;;;8.70;1.70;;;12.80;39.40;;;;;;5082773;28;20087;-82
2021/04/24 11:51:48;;;;;;;6.35;1.75;;;12.80;39.50;;;;;;5103815;27;20115;-81
2021/04/24 11:54:21;;;;;;;8.57;1.88;;;12.80;39.20;;;;;;5083826;28;20075;-81
2021/04/24 11:56:49;;;;;;;7.32;1.48;;;12.80;39.30;;;;;;5076519;28;21250;-80
2021/04/24 11:59:22;;;;;;;5.43;1.60;;;12.80;39.20;;;;;;5099076;28;20067;-83
2021/04/24 12:01:48;;;;;;;10.70;2.40;;;12.90;39.20;;;;;;5066585;28;20059;-81
2021/04/24 12:04:44;;;;;;;8.75;1.70;;;13.00;39.40;;;;;;5084855;28;20028;-81
2021/04/24 12:07:19;;;;;;;4.70;1.58;;;12.90;38.70;;;;;;5067489;28;20585;-81
2021/04/24 12:10:00;;;;;;;5.72;1.48;;;12.80;38.00;;;;;;5081465;28;20056;-84
2021/04/24 12:12:42;;;;;;;7.25;1.83;;;12.70;38.90;;;;;;5074960;28;20088;-79
2021/04/24 12:15:08;;;;;;;;;;;12.70;38.80;;;;;;5073177;28;20055;-80
2021/04/24 12:17:35;;;;;;;4.68;1.50;;;12.70;39.00;;;;;;5075900;28;19969;-80
2021/04/24 12:20:02;;;;;;;4.50;1.38;;;12.80;39.80;;;;;;5070521;28;20070;-80
2021/04/24 12:22:28;;;;;;;6.47;1.88;;;12.80;39.60;;;;;;5073932;28;20028;-82
2021/04/24 12:24:54;;;;;;;9.30;2.00;;;12.80;38.60;;;;;;5041907;28;20036;-83
2021/04/24 12:27:36;;;;;;;7.20;2.03;;;12.80;39.20;;;;;;5079345;28;20727;-82
2021/04/24 12:30:17;;;;;;;7.25;1.83;;;12.80;40.10;;;;;;5082288;28;20388;-81
2021/04/24 12:32:47;;;;;;;7.43;1.90;;;12.80;39.90;;;;;;5075236;28;20039;-80
2021/04/24 12:35:15;;;;;;;7.18;1.60;;;12.80;39.50;;;;;;5076849;28;20032;-81
2021/04/24 12:37:41;;;;;;;5.90;1.55;;;12.70;39.20;;;;;;5075273;28;20167;-82
2021/04/24 12:40:11;;;;;;;3.47;1.70;;;12.60;40.00;;;;;;5078017;28;20042;-80
2021/04/24 12:42:37;;;;;;;8.95;1.95;;;12.60;40.10;;;;;;5078285;28;20286;-82
2021/04/24 12:45:13;;;;;;;6.30;1.85;;;12.70;40.10;;;;;;5063187;28;20251;-81
2021/04/24 12:47:41;;;;;;;3.28;1.58;;;12.70;39.50;;;;;;5083298;28;20156;-81
2021/04/24 12:50:11;;;;;;;6.90;1.73;;;12.50;39.80;;;;;;5082341;28;20066;-81